createdAt,value
2023-01-19T00:02:55.142Z,84.86
2023-01-19T00:05:57.828Z,84.83
2023-01-19T00:09:00.203Z,85.09
2023-01-19T00:12:02.888Z,85.24
2023-01-19T00:15:06.090Z,85.03
2023-01-19T00:18:10.631Z,84.94
2023-01-19T00:21:16.941Z,84.66
2023-01-19T00:24:19.680Z,84.83
2023-01-19T00:27:22.105Z,84.69
2023-01-19T00:30:24.915Z,84.77
2023-01-19T00:33:27.296Z,85.01
2023-01-19T00:36:30.026Z,84.66
2023-01-19T00:39:32.347Z,84.99
2023-01-19T00:42:40.745Z,84.51
2023-01-19T00:45:43.203Z,84.64
2023-01-19T00:48:45.845Z,84.56
2023-01-19T00:51:48.160Z,84.53
2023-01-19T00:54:51.024Z,84.48
2023-01-19T00:57:53.320Z,84.44
2023-01-19T01:00:57.496Z,84.51
2023-01-19T01:03:59.958Z,84.60
2023-01-19T01:07:02.822Z,84.49
2023-01-19T01:10:05.515Z,84.61
2023-01-19T01:13:19.899Z,84.83
2023-01-19T01:16:25.018Z,84.67
2023-01-19T01:19:27.682Z,84.39
2023-01-19T01:22:30.728Z,84.26
2023-01-19T01:25:37.448Z,84.46
2023-01-19T01:28:39.812Z,84.13
2023-01-19T01:31:42.436Z,84.04
2023-01-19T01:34:44.796Z,83.89
2023-01-19T01:37:47.506Z,83.61
2023-01-19T01:40:50.171Z,83.23
2023-01-19T01:43:58.283Z,83.62
2023-01-19T01:47:01.285Z,83.65
2023-01-19T01:50:27.970Z,83.58
2023-01-19T01:53:32.968Z,83.47
2023-01-19T01:56:59.533Z,83.55
2023-01-19T02:00:03.646Z,83.56
2023-01-19T02:03:07.461Z,83.41
2023-01-19T02:06:10.526Z,83.18
2023-01-19T02:09:31.630Z,83.21
2023-01-19T02:12:53.160Z,83.18
2023-01-19T02:16:00.091Z,82.96
2023-01-19T02:19:04.067Z,83.15
2023-01-19T02:22:19.045Z,83.05
2023-01-19T02:25:22.082Z,83.04
2023-01-19T02:28:26.168Z,83.13
2023-01-19T02:31:31.282Z,83.27
2023-01-19T02:34:33.907Z,82.92
2023-01-19T02:37:40.190Z,82.92
2023-01-19T02:40:43.544Z,82.87
2023-01-19T02:43:49.234Z,82.62
2023-01-19T02:46:54.389Z,82.91
2023-01-19T02:49:57.932Z,82.83
2023-01-19T02:53:21.849Z,82.43
2023-01-19T02:56:30.143Z,82.44
2023-01-19T02:59:50.743Z,82.06
2023-01-19T03:03:16.404Z,81.83
2023-01-19T03:07:07.589Z,81.73
2023-01-19T03:10:24.186Z,81.54
2023-01-19T03:14:02.072Z,81.55
2023-01-19T03:17:08.080Z,81.18
2023-01-19T03:20:14.046Z,81.22
2023-01-19T03:23:18.538Z,81.33
2023-01-19T03:26:26.530Z,81.06
2023-01-19T03:29:34.870Z,80.69
2023-01-19T03:32:48.354Z,80.92
2023-01-19T03:35:56.960Z,80.51
2023-01-19T03:39:02.479Z,80.48
2023-01-19T03:42:08.485Z,80.20
2023-01-19T03:45:14.003Z,80.77
2023-01-19T03:48:17.309Z,81.16
2023-01-19T03:51:20.438Z,81.28
2023-01-19T03:54:23.479Z,81.32
2023-01-19T03:57:26.135Z,80.93
2023-01-19T04:00:29.105Z,80.79
2023-01-19T04:03:31.732Z,81.14
2023-01-19T04:06:34.087Z,81.22
2023-01-19T04:09:36.768Z,81.18
2023-01-19T04:12:40.130Z,81.17
2023-01-19T04:15:42.777Z,81.17
2023-01-19T04:18:45.259Z,80.93
2023-01-19T04:21:51.109Z,81.30
2023-01-19T04:24:53.535Z,81.00
2023-01-19T04:27:58.359Z,80.74
2023-01-19T04:31:01.321Z,80.13
2023-01-19T04:34:04.303Z,80.15
2023-01-19T04:37:08.540Z,79.65
2023-01-19T04:40:14.083Z,79.96
2023-01-19T04:43:17.016Z,79.05
2023-01-19T04:46:19.720Z,78.28
2023-01-19T04:49:22.059Z,78.45
2023-01-19T04:52:24.845Z,78.76
2023-01-19T04:55:27.145Z,78.87
2023-01-19T04:58:29.973Z,77.91
2023-01-19T05:01:32.709Z,77.66
2023-01-19T05:04:35.354Z,77.82
2023-01-19T05:07:38.301Z,78.47
2023-01-19T05:10:41.016Z,78.64
2023-01-19T05:13:43.307Z,78.44
2023-01-19T05:16:45.934Z,78.10
2023-01-19T05:19:49.013Z,78.35
2023-01-19T05:22:53.354Z,78.52
2023-01-19T05:25:56.839Z,78.54
2023-01-19T05:28:59.417Z,78.18
2023-01-19T05:32:02.000Z,78.09
2023-01-19T05:35:04.870Z,78.28
2023-01-19T05:38:07.157Z,77.90
2023-01-19T05:41:09.851Z,77.42
2023-01-19T05:44:12.787Z,77.53
2023-01-19T05:47:15.517Z,77.29
2023-01-19T05:50:17.965Z,77.62
2023-01-19T05:53:21.230Z,77.14
2023-01-19T05:56:23.571Z,76.79
2023-01-19T05:59:27.282Z,76.89
2023-01-19T06:02:30.272Z,76.57
2023-01-19T06:05:32.854Z,76.45
2023-01-19T06:08:35.233Z,76.46
2023-01-19T06:11:37.890Z,76.28
2023-01-19T06:14:40.909Z,76.07
2023-01-19T06:17:43.621Z,76.62
2023-01-19T06:20:45.946Z,76.54
2023-01-19T06:23:48.545Z,76.75
2023-01-19T06:26:51.127Z,77.12
2023-01-19T06:29:53.851Z,77.00
2023-01-19T06:32:56.228Z,77.79
2023-01-19T06:35:58.898Z,77.65
2023-01-19T06:39:05.574Z,77.42
2023-01-19T06:42:13.175Z,77.64
2023-01-19T06:45:17.031Z,77.36
2023-01-19T06:48:19.840Z,76.98
2023-01-19T06:51:23.934Z,77.18
2023-01-19T06:54:27.263Z,77.11
2023-01-19T06:57:29.648Z,77.08
2023-01-19T07:00:32.586Z,77.16
2023-01-19T07:03:36.780Z,77.06
2023-01-19T07:06:39.614Z,77.32
2023-01-19T07:09:41.895Z,76.85
2023-01-19T07:12:46.558Z,77.39
2023-01-19T07:15:49.079Z,77.24
2023-01-19T07:18:51.900Z,77.42
2023-01-19T07:21:54.230Z,77.50
2023-01-19T07:24:56.872Z,77.69
2023-01-19T07:28:00.214Z,77.63
2023-01-19T07:31:03.875Z,77.40
2023-01-19T07:34:07.033Z,77.44
2023-01-19T07:37:10.074Z,77.31
2023-01-19T07:40:12.691Z,76.98
2023-01-19T07:43:15.848Z,76.94
2023-01-19T07:46:18.380Z,76.77
2023-01-19T07:49:21.404Z,76.76
2023-01-19T07:52:23.844Z,76.60
2023-01-19T07:55:26.682Z,76.34
2023-01-19T07:58:29.116Z,76.00
2023-01-19T08:01:32.012Z,76.23
2023-01-19T08:04:34.856Z,75.89
2023-01-19T08:07:37.178Z,75.85
2023-01-19T08:10:39.807Z,75.79
2023-01-19T08:13:43.429Z,76.11
2023-01-19T08:16:46.065Z,76.27
2023-01-19T08:19:48.351Z,76.05
2023-01-19T08:22:51.000Z,76.04
2023-01-19T08:25:53.907Z,75.93
2023-01-19T08:28:58.938Z,75.81
2023-01-19T08:32:03.129Z,75.88
2023-01-19T08:35:06.613Z,75.77
2023-01-19T08:38:10.180Z,75.36
2023-01-19T08:41:12.874Z,75.41
2023-01-19T08:44:16.066Z,75.79
2023-01-19T08:47:18.777Z,75.49
2023-01-19T08:50:22.761Z,75.58
2023-01-19T08:53:25.591Z,75.72
2023-01-19T08:56:27.977Z,75.89
2023-01-19T08:59:30.728Z,76.03
2023-01-19T09:02:33.134Z,76.54
2023-01-19T09:05:39.002Z,76.92
2023-01-19T09:08:41.381Z,76.41
2023-01-19T09:11:44.064Z,76.79
2023-01-19T09:14:46.393Z,76.60
2023-01-19T09:17:49.089Z,76.43
2023-01-19T09:20:51.492Z,77.39
2023-01-19T09:23:55.064Z,76.86
2023-01-19T09:26:57.615Z,77.17
2023-01-19T09:30:00.255Z,76.52
2023-01-19T09:33:10.601Z,77.01
2023-01-19T09:36:13.202Z,76.72
2023-01-19T09:39:15.592Z,77.00
2023-01-19T09:42:31.289Z,76.51
2023-01-19T09:45:46.118Z,76.33
2023-01-19T09:48:52.996Z,76.52
2023-01-19T09:51:55.333Z,76.31
2023-01-19T09:54:59.029Z,76.21
2023-01-19T09:58:01.656Z,76.78
2023-01-19T10:01:27.595Z,77.24
2023-01-19T10:04:40.291Z,77.74
2023-01-19T10:07:53.483Z,77.32
2023-01-19T10:10:57.933Z,77.25
2023-01-19T10:14:00.655Z,77.73
2023-01-19T10:17:22.732Z,78.01
2023-01-19T10:21:05.399Z,78.22
2023-01-19T10:24:28.938Z,78.17
2023-01-19T10:27:34.282Z,78.22
2023-01-19T10:30:37.348Z,78.22
2023-01-19T10:33:39.940Z,77.50
2023-01-19T10:36:42.864Z,77.71
2023-01-19T10:40:11.272Z,77.84
2023-01-19T10:43:36.933Z,78.28
2023-01-19T10:46:50.411Z,78.03
2023-01-19T10:49:53.188Z,78.57
2023-01-19T10:53:00.284Z,79.17
2023-01-19T10:56:24.546Z,79.41
2023-01-19T10:59:33.024Z,79.58
2023-01-19T11:02:35.795Z,80.07
2023-01-19T11:05:38.603Z,79.72
2023-01-19T11:08:42.898Z,79.44
2023-01-19T11:11:51.009Z,79.32
2023-01-19T11:14:54.237Z,79.74
2023-01-19T11:17:56.908Z,79.97
2023-01-19T11:21:21.703Z,79.16
2023-01-19T11:24:24.211Z,79.08
2023-01-19T11:27:27.664Z,79.05
2023-01-19T11:30:30.707Z,79.09
2023-01-19T11:33:53.342Z,79.29
2023-01-19T11:37:04.591Z,79.62
2023-01-19T11:40:09.391Z,79.36
2023-01-19T11:43:13.702Z,79.32
2023-01-19T11:46:17.695Z,79.14
2023-01-19T11:49:31.314Z,78.92
2023-01-19T11:52:40.788Z,78.85
2023-01-19T11:55:51.376Z,78.29
2023-01-19T11:58:54.298Z,78.58
2023-01-19T12:02:00.716Z,78.26
2023-01-19T12:05:12.163Z,78.39
2023-01-19T12:08:19.181Z,78.28
2023-01-19T12:11:57.077Z,78.74
2023-01-19T12:15:22.548Z,78.59
2023-01-19T12:18:30.295Z,78.52
2023-01-19T12:21:32.630Z,78.69
2023-01-19T12:24:44.703Z,78.80
2023-01-19T12:27:48.987Z,78.79
2023-01-19T12:30:52.941Z,78.15
2023-01-19T12:33:55.526Z,78.51
2023-01-19T12:37:03.024Z,78.57
2023-01-19T12:40:26.127Z,78.57
2023-01-19T12:43:29.033Z,78.33
2023-01-19T12:46:32.171Z,78.71
2023-01-19T12:49:49.475Z,78.77
2023-01-19T12:52:58.727Z,78.59
2023-01-19T12:56:10.123Z,77.75
2023-01-19T12:59:25.451Z,78.46
2023-01-19T13:02:28.158Z,78.97
2023-01-19T13:05:32.536Z,78.49
2023-01-19T13:09:26.845Z,78.56
2023-01-19T13:12:29.536Z,78.34
2023-01-19T13:15:36.145Z,78.33
2023-01-19T13:18:41.749Z,78.23
2023-01-19T13:21:49.569Z,78.13
2023-01-19T13:25:07.973Z,78.01
2023-01-19T13:28:13.963Z,78.74
2023-01-19T13:31:17.198Z,78.32
2023-01-19T13:34:23.407Z,78.68
2023-01-19T13:37:38.955Z,78.42
2023-01-19T13:40:42.000Z,78.44
2023-01-19T13:43:45.027Z,78.24
2023-01-19T13:46:48.947Z,77.83
2023-01-19T13:49:56.832Z,78.39
2023-01-19T13:53:00.331Z,78.19
2023-01-19T13:56:23.313Z,77.34
2023-01-19T13:59:26.062Z,78.19
2023-01-19T14:02:28.710Z,77.85
2023-01-19T14:05:39.650Z,78.31
2023-01-19T14:08:41.997Z,77.94
2023-01-19T14:12:05.744Z,78.25
2023-01-19T14:15:17.030Z,78.33
2023-01-19T14:18:19.634Z,78.29
2023-01-19T14:21:22.093Z,78.16
2023-01-19T14:24:24.750Z,77.56
2023-01-19T14:27:27.183Z,77.64
2023-01-19T14:30:30.034Z,77.75
2023-01-19T14:33:36.609Z,77.95
2023-01-19T14:36:42.039Z,78.16
2023-01-19T14:39:56.054Z,78.12
2023-01-19T14:43:03.236Z,78.09
2023-01-19T14:46:05.628Z,77.74
2023-01-19T14:49:19.003Z,77.94
2023-01-19T14:52:38.835Z,77.84
2023-01-19T14:55:51.008Z,77.71
2023-01-19T14:58:54.968Z,77.73
2023-01-19T15:01:59.724Z,77.57
2023-01-19T15:05:02.204Z,77.28
2023-01-19T15:08:05.757Z,77.41
2023-01-19T15:11:32.210Z,77.09
2023-01-19T15:14:35.534Z,77.23
2023-01-19T15:17:37.940Z,77.02
2023-01-19T15:20:40.824Z,77.17
2023-01-19T15:23:43.343Z,77.44
2023-01-19T15:26:46.160Z,76.99
2023-01-19T15:29:48.499Z,77.17
2023-01-19T15:32:51.172Z,77.35
2023-01-19T15:35:54.904Z,77.23
2023-01-19T15:38:57.580Z,77.35
2023-01-19T15:42:01.048Z,78.06
2023-01-19T15:45:23.869Z,77.83
2023-01-19T15:48:26.205Z,78.03
2023-01-19T15:51:29.140Z,78.32
2023-01-19T15:54:31.458Z,77.69
2023-01-19T15:57:35.177Z,78.02
2023-01-19T16:00:37.505Z,78.02
2023-01-19T16:03:40.176Z,78.07
2023-01-19T16:06:45.130Z,78.12
2023-01-19T16:09:48.177Z,78.37
2023-01-19T16:12:50.621Z,78.03
2023-01-19T16:15:53.256Z,78.53
2023-01-19T16:18:56.936Z,78.98
2023-01-19T16:22:02.298Z,78.50
2023-01-19T16:25:05.426Z,78.51
2023-01-19T16:28:08.439Z,78.43
2023-01-19T16:31:10.879Z,78.32
2023-01-19T16:34:13.725Z,78.10
2023-01-19T16:37:16.060Z,77.95
2023-01-19T16:40:20.310Z,77.97
2023-01-19T16:43:22.651Z,77.36
2023-01-19T16:46:27.972Z,77.17
2023-01-19T16:49:30.450Z,77.36
2023-01-19T16:52:33.124Z,76.89
2023-01-19T16:55:40.658Z,76.61
2023-01-19T16:58:43.867Z,76.79
2023-01-19T17:01:46.380Z,76.21
2023-01-19T17:04:49.306Z,76.59
2023-01-19T17:07:51.764Z,76.79
2023-01-19T17:10:55.669Z,76.67
2023-01-19T17:14:00.525Z,76.40
2023-01-19T17:17:04.311Z,75.81
2023-01-19T17:20:07.263Z,76.19
2023-01-19T17:23:10.030Z,75.96
2023-01-19T17:26:12.426Z,75.67
2023-01-19T17:29:16.459Z,75.79
2023-01-19T17:32:18.783Z,76.51
2023-01-19T17:35:21.478Z,76.12
2023-01-19T17:38:23.728Z,76.20
2023-01-19T17:41:31.624Z,76.37
2023-01-19T17:44:34.107Z,76.39
2023-01-19T17:47:37.747Z,76.42
2023-01-19T17:50:40.136Z,76.61
2023-01-19T17:53:42.744Z,76.42
2023-01-19T17:56:45.115Z,76.21
2023-01-19T17:59:47.891Z,76.21
2023-01-19T18:02:51.273Z,76.16
2023-01-19T18:05:54.904Z,76.05
2023-01-19T18:08:58.940Z,76.10
2023-01-19T18:12:01.625Z,76.12
2023-01-19T18:15:05.754Z,75.95
2023-01-19T18:18:08.295Z,75.80
2023-01-19T18:21:12.932Z,75.96
2023-01-19T18:24:15.637Z,76.29
2023-01-19T18:27:17.975Z,76.10
2023-01-19T18:30:21.287Z,75.85
2023-01-19T18:33:24.142Z,75.72
2023-01-19T18:36:26.854Z,76.17
2023-01-19T18:39:32.116Z,75.94
2023-01-19T18:42:34.958Z,75.83
2023-01-19T18:45:38.322Z,76.18
2023-01-19T18:48:41.104Z,76.20
2023-01-19T18:51:43.468Z,76.04
2023-01-19T18:54:48.677Z,76.37
2023-01-19T18:57:51.591Z,76.36
2023-01-19T19:00:54.373Z,76.09
2023-01-19T19:03:57.626Z,76.28
2023-01-19T19:07:00.207Z,76.51
2023-01-19T19:10:02.798Z,76.39
2023-01-19T19:13:05.445Z,76.15
2023-01-19T19:16:09.330Z,75.93
2023-01-19T19:19:15.356Z,76.11
2023-01-19T19:22:17.691Z,76.20
2023-01-19T19:25:20.374Z,75.89
2023-01-19T19:28:22.704Z,76.10
2023-01-19T19:31:26.946Z,76.56
2023-01-19T19:34:30.165Z,76.49
2023-01-19T19:37:32.812Z,76.77
2023-01-19T19:40:35.237Z,76.51
2023-01-19T19:43:38.485Z,76.20
2023-01-19T19:46:43.880Z,76.68
2023-01-19T19:49:46.571Z,76.56
2023-01-19T19:52:49.026Z,76.73
2023-01-19T19:56:02.376Z,76.81
2023-01-19T19:59:04.728Z,76.62
2023-01-19T20:02:11.120Z,76.59
2023-01-19T20:05:13.746Z,76.50
2023-01-19T20:08:16.601Z,76.49
2023-01-19T20:11:22.371Z,76.48
2023-01-19T20:14:24.837Z,76.42
2023-01-19T20:17:27.561Z,76.46
2023-01-19T20:20:30.037Z,76.56
2023-01-19T20:23:33.641Z,76.63
2023-01-19T20:26:39.134Z,76.68
2023-01-19T20:29:41.734Z,76.69
2023-01-19T20:32:44.418Z,76.37
2023-01-19T20:35:47.631Z,76.25
2023-01-19T20:38:51.162Z,76.42
2023-01-19T20:41:53.968Z,76.42
2023-01-19T20:44:56.376Z,76.53
2023-01-19T20:47:59.043Z,76.57
2023-01-19T20:51:08.020Z,76.43
2023-01-19T20:54:12.740Z,76.30
2023-01-19T20:57:15.116Z,76.26
2023-01-19T21:00:18.090Z,76.40
2023-01-19T21:03:20.392Z,76.54
2023-01-19T21:06:23.273Z,76.73
2023-01-19T21:09:25.603Z,76.69
2023-01-19T21:12:28.285Z,76.76
2023-01-19T21:15:30.611Z,77.08
2023-01-19T21:18:33.426Z,77.02
2023-01-19T21:21:35.793Z,77.13
2023-01-19T21:24:38.428Z,77.00
2023-01-19T21:27:40.791Z,76.99
2023-01-19T21:30:43.530Z,77.01
2023-01-19T21:33:45.922Z,76.91
2023-01-19T21:36:48.663Z,77.09
2023-01-19T21:39:50.957Z,77.23
2023-01-19T21:42:53.600Z,77.11
2023-01-19T21:45:56.021Z,77.37
2023-01-19T21:49:04.688Z,77.16
2023-01-19T21:52:07.025Z,76.91
2023-01-19T21:55:09.829Z,76.90
2023-01-19T21:58:12.200Z,77.13
2023-01-19T22:01:15.688Z,76.62
2023-01-19T22:04:18.457Z,76.55
2023-01-19T22:07:20.784Z,76.15
2023-01-19T22:10:23.589Z,76.25
2023-01-19T22:13:28.087Z,75.89
2023-01-19T22:16:30.822Z,76.00
2023-01-19T22:19:33.210Z,75.96
2023-01-19T22:22:35.797Z,76.28
2023-01-19T22:25:38.173Z,76.26
2023-01-19T22:28:41.050Z,76.21
2023-01-19T22:31:43.463Z,76.01
2023-01-19T22:34:47.500Z,75.77
2023-01-19T22:37:49.869Z,75.59
2023-01-19T22:40:52.490Z,75.45
2023-01-19T22:43:57.416Z,75.84
2023-01-19T22:47:00.035Z,75.95
2023-01-19T22:50:02.319Z,75.67
2023-01-19T22:53:04.948Z,75.96
2023-01-19T22:56:19.357Z,76.11
2023-01-19T22:59:22.054Z,76.41
2023-01-19T23:02:24.421Z,76.36
2023-01-19T23:05:27.160Z,76.51
2023-01-19T23:08:29.473Z,76.62
2023-01-19T23:11:38.179Z,76.24
2023-01-19T23:14:40.567Z,76.25
2023-01-19T23:17:45.533Z,75.84
2023-01-19T23:20:47.910Z,75.43
2023-01-19T23:23:57.816Z,75.77
2023-01-19T23:27:02.242Z,75.79
2023-01-19T23:30:05.365Z,75.74
2023-01-19T23:33:07.900Z,75.48
2023-01-19T23:36:15.334Z,75.16
2023-01-19T23:39:20.687Z,75.23
2023-01-19T23:42:23.478Z,75.15
2023-01-19T23:45:25.793Z,75.17
2023-01-19T23:48:28.368Z,75.50
2023-01-19T23:51:32.225Z,75.69
2023-01-19T23:54:35.005Z,75.86
2023-01-19T23:57:37.327Z,76.19
